Time;durP1;ratioP1;P1;durP2;ratioP2;P2;SDS_P1;SDS_P2;PMS_P1;PMS_P2;Temp;Humidity;BMP_temperature;BMP_pressure;BME280_temperature;BME280_humidity;BME280_pressure;Samples;Min_cycle;Max_cycle;Signal;HPM_P1;HPM_P2
2022/06/03 00:02:38;;;;;;;0.63;0.63;;;;;;;11.71;100.00;98827.94;15276562;19;20034;-59
2022/06/03 00:07:56;;;;;;;1.08;0.70;;;;;;;11.62;100.00;98823.50;15272584;19;20010;-60
2022/06/03 00:13:14;;;;;;;1.25;0.80;;;;;;;11.50;100.00;98824.75;15274551;19;20014;-59
2022/06/03 00:18:48;;;;;;;1.58;0.80;;;;;;;11.39;100.00;98815.09;15270600;19;20010;-60
2022/06/03 00:24:08;;;;;;;1.50;0.95;;;;;;;11.29;100.00;98825.97;15272843;19;20033;-62
2022/06/03 00:29:31;;;;;;;1.38;0.90;;;;;;;11.16;100.00;98829.06;15270305;19;20018;-61
2022/06/03 00:34:59;;;;;;;0.77;0.77;;;;;;;11.07;100.00;98828.13;15271484;19;20010;-62
2022/06/03 00:40:24;;;;;;;1.30;0.90;;;;;;;10.91;100.00;98820.75;15283077;19;20010;-61
2022/06/03 00:46:01;;;;;;;1.42;1.00;;;;;;;10.81;100.00;98819.13;15285031;19;20479;-62
2022/06/03 00:51:30;;;;;;;1.60;1.10;;;;;;;10.62;100.00;98812.88;15287285;19;20014;-61
2022/06/03 00:56:59;;;;;;;1.85;0.93;;;;;;;10.51;100.00;98810.41;15285254;19;20038;-60
2022/06/03 01:02:13;;;;;;;;;;;;;;;10.45;100.00;98807.28;15284699;19;20010;-63
2022/06/03 01:07:28;;;;;;;1.00;0.90;;;;;;;10.50;100.00;98800.63;15282856;19;19910;-60
2022/06/03 01:12:58;;;;;;;0.93;0.93;;;;;;;10.45;100.00;98801.91;15288694;19;20038;-61
2022/06/03 01:18:19;;;;;;;1.13;1.02;;;;;;;10.38;100.00;98800.81;15282786;19;20039;-61
2022/06/03 01:23:45;;;;;;;1.77;1.00;;;;;;;10.32;100.00;98801.38;15287848;19;20014;-59
2022/06/03 01:29:23;;;;;;;1.27;1.00;;;;;;;10.25;100.00;98795.75;15286642;19;20394;-61
2022/06/03 01:34:41;;;;;;;1.10;1.00;;;;;;;10.16;100.00;98793.97;15282678;19;20010;-62
2022/06/03 01:40:18;;;;;;;1.23;1.10;;;;;;;10.10;100.00;98794.56;15281368;19;20364;-59
2022/06/03 01:45:56;;;;;;;1.30;1.20;;;;;;;9.99;100.00;98793.78;15280840;19;20022;-58
2022/06/03 01:51:23;;;;;;;2.67;1.30;;;;;;;9.89;100.00;98790.25;15178446;19;2004634;-59
2022/06/03 01:56:44;;;;;;;1.45;1.35;;;;;;;9.78;100.00;98783.22;15280057;19;20025;-58
2022/06/03 02:02:27;;;;;;;1.73;1.40;;;;;;;9.70;100.00;98769.66;15278403;19;20014;-62
2022/06/03 02:08:06;;;;;;;3.63;1.50;;;;;;;9.63;100.00;98755.09;15278876;19;20018;-60
2022/06/03 02:13:47;;;;;;;2.92;1.50;;;;;;;9.56;100.00;98757.50;15279426;19;20038;-59
2022/06/03 02:19:28;;;;;;;2.10;1.40;;;;;;;9.47;100.00;98764.63;15281006;19;20011;-62
2022/06/03 02:25:09;;;;;;;1.58;1.40;;;;;;;9.33;100.00;98751.66;15278819;19;20041;-59
2022/06/03 02:30:36;;;;;;;2.23;1.70;;;;;;;9.13;100.00;98754.34;15281391;19;20011;-60
2022/06/03 02:36:09;;;;;;;2.13;1.50;;;;;;;9.03;100.00;98751.69;15270987;19;20029;-60
2022/06/03 02:41:41;;;;;;;4.07;1.83;;;;;;;8.96;100.00;98752.41;15276949;19;20015;-58
2022/06/03 02:47:08;;;;;;;2.00;1.80;;;;;;;8.86;100.00;98753.28;15276000;19;20376;-58
2022/06/03 02:52:48;;;;;;;2.22;1.85;;;;;;;8.79;100.00;98754.81;15275185;19;20018;-60
2022/06/03 02:58:08;;;;;;;1.90;1.80;;;;;;;8.73;100.00;98755.38;15273951;19;20014;-63
2022/06/03 03:03:41;;;;;;;2.58;1.90;;;;;;;8.67;100.00;98766.69;15277436;19;20053;-63
2022/06/03 03:09:11;;;;;;;4.38;2.10;;;;;;;8.55;100.00;98768.66;15268038;19;20018;-58
2022/06/03 03:14:42;;;;;;;3.13;2.13;;;;;;;8.46;100.00;98776.56;15276969;19;20015;-55
2022/06/03 03:20:17;;;;;;;2.93;1.90;;;;;;;8.46;100.00;98776.56;15273094;19;20491;-56
2022/06/03 03:25:44;;;;;;;3.45;1.95;;;;;;;8.44;100.00;98785.72;15272832;19;20294;-59
2022/06/03 03:31:04;;;;;;;2.03;1.80;;;;;;;8.43;100.00;98786.69;15280362;19;20046;-61
2022/06/03 03:36:37;;;;;;;2.03;1.77;;;;;;;8.40;100.00;98776.25;15273411;19;20007;-61
2022/06/03 03:42:05;;;;;;;2.72;1.80;;;;;;;8.41;100.00;98772.59;15266388;19;20014;-58
2022/06/03 03:47:55;;;;;;;3.45;2.17;;;;;;;8.45;100.00;98774.84;15274251;19;20022;-60
2022/06/03 03:53:46;;;;;;;2.83;2.40;;;;;;;8.48;100.00;98763.84;15277007;19;20014;-58
2022/06/03 03:59:26;;;;;;;2.53;2.20;;;;;;;8.56;100.00;98760.47;15273210;19;20467;-58
2022/06/03 04:05:07;;;;;;;3.22;2.10;;;;;;;8.66;100.00;98770.34;15280281;19;20003;-58
2022/06/03 04:10:43;;;;;;;2.22;2.03;;;;;;;8.71;100.00;98768.13;15280344;19;20014;-62
2022/06/03 04:16:33;;;;;;;2.38;1.95;;;;;;;8.75;100.00;98770.38;15291585;19;20011;-60
2022/06/03 04:22:04;;;;;;;3.28;2.03;;;;;;;8.83;100.00;98783.09;15278644;19;20385;-61
2022/06/03 04:27:38;;;;;;;3.05;1.88;;;;;;;8.91;100.00;98785.09;15286047;19;20033;-61
2022/06/03 04:33:15;;;;;;;2.58;2.00;;;;;;;8.99;100.00;98787.91;15284179;19;20025;-61
2022/06/03 04:38:59;;;;;;;3.15;2.20;;;;;;;9.00;100.00;98788.75;15284290;19;20010;-63
2022/06/03 04:44:58;;;;;;;3.35;2.10;;;;;;;9.04;100.00;98791.03;15275170;19;20010;-63
2022/06/03 04:50:45;;;;;;;2.13;1.90;;;;;;;9.14;100.00;98774.03;15288936;19;20014;-60
2022/06/03 04:56:27;;;;;;;2.20;2.00;;;;;;;9.28;100.00;98770.03;15282256;19;20376;-55
2022/06/03 05:02:13;;;;;;;2.55;2.35;;;;;;;9.42;100.00;98764.22;15282672;19;20042;-61
2022/06/03 05:08:09;;;;;;;2.30;2.10;;;;;;;9.57;100.00;98759.22;15282555;19;20022;-58
2022/06/03 05:13:57;;;;;;;2.28;2.08;;;;;;;9.74;100.00;98754.91;15282184;19;20506;-59
2022/06/03 05:19:43;;;;;;;2.35;2.13;;;;;;;9.90;100.00;98751.56;15276988;19;20031;-61
2022/06/03 05:25:10;;;;;;;2.28;2.08;;;;;;;10.08;100.00;98748.09;15278160;19;20038;-60
2022/06/03 05:30:41;;;;;;;2.67;2.17;;;;;;;10.30;100.00;98752.19;15284583;19;20365;-58
2022/06/03 05:36:19;;;;;;;2.42;2.22;;;;;;;10.43;100.00;98750.03;15278144;19;20018;-57
2022/06/03 05:47:11;;;;;;;3.22;2.10;;;;;;;10.75;100.00;98748.69;15277635;19;20011;-59
2022/06/03 05:52:31;;;;;;;3.28;2.40;;;;;;;10.98;100.00;98752.72;15281498;19;20014;-59
2022/06/03 05:57:41;;;;;;;2.67;2.47;;;;;;;11.12;100.00;98746.78;15278729;19;20039;-60
2022/06/03 06:02:54;;;;;;;1.60;1.50;;;;;;;11.46;100.00;98728.97;15282692;19;20356;-60
2022/06/03 06:08:27;;;;;;;4.05;1.67;;;;;;;11.89;100.00;98724.47;15280087;19;20021;-59
2022/06/03 06:14:06;;;;;;;2.38;1.50;;;;;;;12.11;100.00;98722.22;15282400;19;20010;-58
2022/06/03 06:19:16;;;;;;;3.75;1.10;;;;;;;12.31;100.00;98722.78;15281843;19;20038;-58
2022/06/03 06:24:58;;;;;;;3.53;1.80;;;;;;;12.52;100.00;98734.97;15272542;19;20365;-60
2022/06/03 06:30:18;;;;;;;;;;;;;;;12.74;100.00;98710.00;15278835;19;20573;-57
2022/06/03 06:35:57;;;;;;;3.20;1.10;;;;;;;13.10;100.00;98704.25;15277244;19;19910;-57
2022/06/03 06:41:22;;;;;;;0.90;0.90;;;;;;;13.34;100.00;98693.56;15278987;19;20030;-58
2022/06/03 06:46:36;;;;;;;2.10;1.00;;;;;;;13.59;100.00;98696.22;15279297;19;20014;-76
2022/06/03 06:52:08;;;;;;;0.70;0.70;;;;;;;13.86;100.00;98692.25;15290463;19;20015;-78
2022/06/03 06:57:20;;;;;;;1.77;0.80;;;;;;;14.18;100.00;98690.41;15349695;19;20006;-75
2022/06/03 07:02:31;;;;;;;0.88;0.60;;;;;;;14.49;100.00;98689.50;15270018;19;20030;-75
2022/06/03 07:07:40;;;;;;;0.70;0.70;;;;;;;14.77;100.00;98681.69;15272000;19;20003;-76
2022/06/03 07:12:53;;;;;;;0.60;0.60;;;;;;;15.01;100.00;98681.69;15275003;19;20007;-75
2022/06/03 07:23:41;;;;;;;1.13;0.70;;;;;;;15.52;100.00;98653.84;15270179;19;20017;-77
2022/06/03 07:28:55;;;;;;;0.88;0.57;;;;;;;15.73;100.00;98644.94;15265910;19;20014;-76
2022/06/03 07:34:05;;;;;;;1.50;0.80;;;;;;;16.04;100.00;98656.63;15267473;19;20010;-77
2022/06/03 07:39:47;;;;;;;2.33;0.73;;;;;;;16.27;100.00;98642.88;15274090;19;20043;-77
2022/06/03 07:45:07;;;;;;;0.55;0.52;;;;;;;16.50;100.00;98637.25;15269436;19;20375;-77
2022/06/03 07:50:21;;;;;;;2.58;0.60;;;;;;;16.67;100.00;98647.84;15290003;19;20010;-77
2022/06/03 07:55:29;;;;;;;1.98;0.68;;;;;;;16.89;100.00;98645.97;15282965;19;20011;-76
2022/06/03 08:00:43;;;;;;;0.82;0.70;;;;;;;17.08;100.00;98644.47;15279213;19;20014;-76
2022/06/03 08:05:51;;;;;;;1.45;0.70;;;;;;;17.25;100.00;98645.84;15287595;19;20042;-77
2022/06/03 08:11:01;;;;;;;0.73;0.65;;;;;;;17.43;100.00;98630.88;15289312;19;20046;-76
2022/06/03 08:16:14;;;;;;;0.90;0.80;;;;;;;17.65;100.00;98630.78;15287231;19;20015;-75
2022/06/03 08:21:24;;;;;;;2.25;0.90;;;;;;;17.82;100.00;98629.38;15284367;19;20492;-77
2022/06/03 08:26:31;;;;;;;0.60;0.60;;;;;;;18.00;100.00;98620.66;15290023;19;20031;-77
2022/06/03 08:31:40;;;;;;;0.52;0.50;;;;;;;18.17;100.00;98621.13;15282033;19;20014;-77
2022/06/03 08:36:45;;;;;;;1.83;0.77;;;;;;;18.34;100.00;98631.69;15284229;19;20013;-77
2022/06/03 08:41:59;;;;;;;2.15;0.98;;;;;;;18.48;100.00;98619.75;15284461;19;20815;-78
2022/06/03 08:47:13;;;;;;;2.60;0.90;;;;;;;18.62;96.31;98627.97;15290627;19;20029;-77
2022/06/03 08:52:21;;;;;;;1.02;0.85;;;;;;;18.76;100.00;98628.78;15282575;19;20026;-77
2022/06/03 08:57:36;;;;;;;0.80;0.70;;;;;;;18.87;89.46;98619.97;15284145;19;20039;-76
2022/06/03 09:02:51;;;;;;;1.45;0.90;;;;;;;19.08;89.66;98615.38;15274453;19;20019;-77
2022/06/03 09:08:04;;;;;;;1.00;0.80;;;;;;;19.24;94.75;98627.72;15288550;19;20491;-77
2022/06/03 09:13:18;;;;;;;3.75;0.73;;;;;;;19.51;91.40;98627.69;15285772;19;20011;-79
2022/06/03 09:18:31;;;;;;;3.65;0.80;;;;;;;19.74;94.53;98620.88;15293417;19;20371;-78
2022/06/03 09:23:42;;;;;;;1.48;0.50;;;;;;;20.00;93.47;98612.59;15291621;19;20029;-76
2022/06/03 09:28:48;;;;;;;1.20;0.68;;;;;;;20.28;95.27;98619.63;15300392;19;20038;-78
2022/06/03 09:33:58;;;;;;;0.90;0.60;;;;;;;20.63;90.76;98610.97;15286462;19;20022;-77
2022/06/03 09:39:08;;;;;;;3.22;0.70;;;;;;;20.83;86.13;98587.22;15300906;19;20015;-79
2022/06/03 09:44:15;;;;;;;3.00;0.65;;;;;;;20.95;87.80;98585.44;15300226;19;20015;-79
2022/06/03 09:49:23;;;;;;;1.25;0.60;;;;;;;21.09;86.54;98581.50;15298994;19;20007;-78
2022/06/03 09:54:31;;;;;;;1.67;0.60;;;;;;;21.34;87.03;98582.53;15291783;19;20011;-78
2022/06/03 09:59:38;;;;;;;1.10;0.70;;;;;;;21.32;79.82;98581.91;15290771;19;20006;-78
2022/06/03 10:04:46;;;;;;;0.73;0.60;;;;;;;21.44;87.92;98569.13;15286500;19;20018;-79
2022/06/03 10:20:33;;;;;;;0.93;0.60;;;;;;;21.67;80.31;98565.72;15291465;19;20006;-79
2022/06/03 10:25:39;;;;;;;0.77;0.50;;;;;;;21.72;77.09;98551.31;15283042;19;20026;-83
2022/06/03 10:30:46;;;;;;;1.40;0.43;;;;;;;21.69;76.21;98562.75;15294272;19;20015;-82
2022/06/03 10:35:55;;;;;;;2.55;0.60;;;;;;;21.83;77.28;98550.53;15288721;19;20014;-83
2022/06/03 10:41:08;;;;;;;2.70;0.60;;;;;;;21.88;75.39;98538.03;15284887;19;20006;-83
2022/06/03 10:46:16;;;;;;;2.33;0.60;;;;;;;22.01;78.84;98530.44;15290632;19;20014;-83
2022/06/03 11:02:17;;;;;;;1.30;0.63;;;;;;;22.51;74.95;98502.91;15290262;19;20019;-82
2022/06/03 11:07:34;;;;;;;1.55;0.50;;;;;;;22.65;75.46;98493.34;15293271;19;20031;-82
2022/06/03 11:12:40;;;;;;;1.48;0.47;;;;;;;22.98;74.45;98500.16;15296131;19;20014;-83
2022/06/03 11:17:44;;;;;;;2.05;0.63;;;;;;;23.18;70.01;98474.19;15287071;19;20467;-84
2022/06/03 11:22:52;;;;;;;1.92;0.50;;;;;;;23.25;70.48;98477.66;15280248;19;20054;-82
2022/06/03 11:28:02;;;;;;;2.30;0.50;;;;;;;23.37;65.92;98461.16;15286478;19;20014;-81
2022/06/03 11:33:14;;;;;;;1.02;0.40;;;;;;;23.55;65.04;98457.38;15279743;19;20030;-56
2022/06/03 11:38:28;;;;;;;1.45;0.40;;;;;;;23.68;65.70;98446.09;15273687;19;20006;-50
2022/06/03 11:43:38;;;;;;;0.77;0.40;;;;;;;23.78;62.42;98444.59;15265311;19;20034;-50
2022/06/03 11:49:03;;;;;;;2.72;0.50;;;;;;;23.96;64.25;98427.88;15278305;19;20007;-54
2022/06/03 11:54:16;;;;;;;1.08;0.55;;;;;;;24.05;59.33;98433.00;15274334;19;20014;-53
2022/06/03 11:59:26;;;;;;;3.15;0.50;;;;;;;24.31;59.68;98431.50;15277171;19;20014;-53
2022/06/03 12:04:42;;;;;;;1.00;0.50;;;;;;;24.38;58.63;98425.81;15275211;19;20039;-54
2022/06/03 12:09:54;;;;;;;2.90;0.63;;;;;;;24.65;58.73;98419.59;15276696;19;20019;-53
2022/06/03 12:15:00;;;;;;;0.70;0.30;;;;;;;24.93;61.05;98433.25;15268306;19;20500;-53
2022/06/03 12:20:37;;;;;;;0.73;0.40;;;;;;;25.09;55.61;98427.94;15275746;19;20354;-54
2022/06/03 12:26:09;;;;;;;3.75;0.60;;;;;;;25.35;54.13;98429.06;15270820;19;20038;-55
2022/06/03 12:31:19;;;;;;;10.68;0.70;;;;;;;25.52;57.14;98423.50;15269205;19;20094;-54
2022/06/03 12:36:40;;;;;;;0.93;0.40;;;;;;;25.80;56.50;98399.50;15287927;19;20019;-56
2022/06/03 12:42:07;;;;;;;1.40;0.60;;;;;;;26.02;52.89;98404.09;15288314;19;20061;-57
2022/06/03 12:47:45;;;;;;;2.65;0.50;;;;;;;25.98;54.43;98395.53;15278217;19;20479;-51
2022/06/03 12:52:52;;;;;;;0.65;0.32;;;;;;;26.26;54.52;98387.19;15286718;19;20010;-50
2022/06/03 12:58:05;;;;;;;3.25;0.40;;;;;;;26.57;54.62;98382.72;15278800;19;20010;-54
2022/06/03 13:03:41;;;;;;;2.17;0.45;;;;;;;26.52;52.16;98387.38;15279407;19;20023;-53
2022/06/03 13:14:31;;;;;;;2.20;0.57;;;;;;;26.99;52.19;98382.94;15285578;19;20082;-58
2022/06/03 13:19:58;;;;;;;1.63;0.60;;;;;;;27.46;50.78;98381.19;15280087;19;20014;-52
2022/06/03 13:25:35;;;;;;;0.98;0.40;;;;;;;27.95;52.03;98377.06;15280166;19;20007;-53
2022/06/03 13:30:44;;;;;;;1.48;0.38;;;;;;;28.08;51.55;98359.94;15271196;19;20356;-53
2022/06/03 13:36:07;;;;;;;2.10;0.52;;;;;;;28.08;48.33;98354.41;15240696;19;20010;-54
2022/06/03 13:47:09;;;;;;;2.38;0.32;;;;;;;28.43;49.32;98349.06;15263274;19;20010;-58
2022/06/03 13:52:24;;;;;;;0.30;0.30;;;;;;;28.88;49.27;98327.88;15272922;19;21163;-59
2022/06/03 13:57:35;;;;;;;1.70;0.35;;;;;;;29.28;47.72;98340.97;15278038;19;20014;-57
2022/06/03 14:02:45;;;;;;;1.25;0.47;;;;;;;29.55;46.44;98343.31;15276723;19;20014;-50
2022/06/03 14:07:59;;;;;;;1.60;0.38;;;;;;;29.81;46.98;98343.94;15277387;19;20020;-52
2022/06/03 14:13:12;;;;;;;1.05;0.50;;;;;;;29.70;47.52;98330.47;15279255;19;20042;-51
2022/06/03 14:18:48;;;;;;;0.88;0.50;;;;;;;29.27;46.64;98339.31;15277081;19;20021;-56
2022/06/03 14:24:23;;;;;;;1.05;0.40;;;;;;;29.15;46.77;98329.41;15268924;19;20030;-53
2022/06/03 14:29:37;;;;;;;3.78;0.50;;;;;;;29.24;46.85;98324.09;15280053;19;20018;-53
2022/06/03 14:34:48;;;;;;;2.88;0.40;;;;;;;29.09;47.99;98322.25;15272593;19;20034;-53
2022/06/03 14:40:05;;;;;;;1.38;0.40;;;;;;;28.81;47.61;98304.34;15279586;19;20050;-54
2022/06/03 14:45:16;;;;;;;1.20;0.40;;;;;;;28.85;49.09;98294.34;15277638;19;20014;-56
2022/06/03 14:50:25;;;;;;;1.25;0.60;;;;;;;28.94;46.56;98298.16;15279348;19;20018;-60
2022/06/03 14:55:37;;;;;;;2.63;0.35;;;;;;;29.18;45.72;98287.22;15272662;19;20018;-52
2022/06/03 15:01:02;;;;;;;0.55;0.40;;;;;;;28.66;44.71;98283.03;15281483;19;20039;-57
2022/06/03 15:06:14;;;;;;;1.08;0.40;;;;;;;28.48;46.14;98262.31;15276629;19;20039;-60
2022/06/03 15:11:29;;;;;;;1.13;0.50;;;;;;;28.86;46.42;98263.56;15277568;19;20021;-56
2022/06/03 15:16:35;;;;;;;2.60;0.40;;;;;;;28.72;47.40;98270.84;15276901;19;20485;-53
2022/06/03 15:21:42;;;;;;;1.48;0.40;;;;;;;28.31;46.57;98257.97;15278842;19;20014;-51
2022/06/03 15:26:51;;;;;;;2.13;0.45;;;;;;;28.35;46.23;98263.75;15276276;19;20029;-54
2022/06/03 15:32:03;;;;;;;0.88;0.50;;;;;;;28.15;47.04;98248.88;15270189;19;20520;-54
2022/06/03 15:37:10;;;;;;;0.70;0.40;;;;;;;27.74;47.50;98249.75;15273723;19;20015;-59
2022/06/03 15:42:26;;;;;;;1.17;0.40;;;;;;;27.40;47.46;98254.97;15276951;19;20010;-51
2022/06/03 15:47:36;;;;;;;2.03;0.47;;;;;;;26.97;48.42;98247.75;15275464;19;20013;-52
2022/06/03 15:52:46;;;;;;;1.53;0.40;;;;;;;26.88;49.26;98243.84;15276092;19;20010;-55
2022/06/03 15:58:06;;;;;;;2.05;0.40;;;;;;;26.73;48.66;98252.91;15273318;19;20010;-54
2022/06/03 16:03:18;;;;;;;1.17;0.40;;;;;;;26.61;49.67;98258.66;15264953;19;20428;-57
2022/06/03 16:08:34;;;;;;;3.55;0.55;;;;;;;26.33;49.94;98260.75;15275231;19;20604;-57
2022/06/03 16:13:57;;;;;;;3.55;0.50;;;;;;;26.25;51.14;98261.28;15276535;19;20578;-54
2022/06/03 16:19:18;;;;;;;1.95;0.30;;;;;;;26.02;50.29;98255.03;15284406;19;20505;-55
2022/06/03 16:24:30;;;;;;;1.43;0.50;;;;;;;25.92;52.12;98255.81;15279571;19;20475;-54
2022/06/03 16:29:50;;;;;;;1.13;0.40;;;;;;;25.77;51.97;98253.78;15290019;19;20022;-54
2022/06/03 16:35:04;;;;;;;1.90;0.50;;;;;;;25.59;52.52;98241.22;15248189;19;20018;-57
2022/06/03 16:40:16;;;;;;;2.95;0.55;;;;;;;25.51;53.21;98234.28;15290764;19;20042;-54
2022/06/03 16:51:05;;;;;;;2.08;0.50;;;;;;;25.43;53.76;98212.69;15277180;19;20034;-56
2022/06/03 16:56:11;;;;;;;1.33;0.50;;;;;;;25.31;54.30;98223.06;15283435;19;20014;-56
2022/06/03 17:01:37;;;;;;;2.60;0.40;;;;;;;25.23;54.19;98219.66;15284569;19;20468;-60
2022/06/03 17:06:52;;;;;;;1.02;0.47;;;;;;;25.26;54.93;98209.22;15276272;19;20026;-57
2022/06/03 17:11:59;;;;;;;1.95;0.40;;;;;;;25.09;54.98;98204.66;15281010;19;20483;-57
2022/06/03 17:17:16;;;;;;;2.60;0.50;;;;;;;24.97;55.60;98207.56;15282062;19;20011;-60
2022/06/03 17:22:35;;;;;;;2.85;0.50;;;;;;;24.84;56.13;98196.97;15274785;19;20456;-56
2022/06/03 17:27:56;;;;;;;3.67;0.52;;;;;;;24.89;56.95;98199.78;15280298;19;20015;-49
2022/06/03 17:33:16;;;;;;;4.78;0.57;;;;;;;24.96;56.71;98200.41;15278258;19;20466;-50
2022/06/03 17:38:28;;;;;;;2.15;0.50;;;;;;;25.01;57.32;98211.50;15272453;19;20082;-55
2022/06/03 17:43:54;;;;;;;3.50;0.60;;;;;;;25.01;57.58;98192.19;15277885;19;20043;-54
2022/06/03 17:49:12;;;;;;;2.65;0.40;;;;;;;24.89;58.10;98211.63;15278818;19;20357;-56
2022/06/03 18:00:05;;;;;;;3.70;0.60;;;;;;;24.46;59.70;98218.84;15282985;19;20522;-58
2022/06/03 18:05:28;;;;;;;2.50;0.70;;;;;;;24.35;60.72;98225.31;15279556;19;20007;-50
2022/06/03 18:10:37;;;;;;;2.00;0.60;;;;;;;24.19;61.03;98219.63;15275937;19;20376;-55
2022/06/03 18:15:43;;;;;;;1.23;0.60;;;;;;;24.08;62.27;98228.81;15280759;19;20002;-52
2022/06/03 18:21:20;;;;;;;1.58;0.50;;;;;;;23.86;63.03;98232.34;15279052;19;20025;-56
2022/06/03 18:26:35;;;;;;;2.92;0.40;;;;;;;23.70;62.77;98237.63;15276704;19;20014;-51
2022/06/03 18:31:57;;;;;;;2.50;0.70;;;;;;;23.60;64.36;98234.72;15278655;19;20025;-53
2022/06/03 18:37:25;;;;;;;0.95;0.40;;;;;;;23.45;65.93;98238.06;15280365;19;20022;-52
2022/06/03 18:43:05;;;;;;;2.20;0.50;;;;;;;23.28;66.88;98232.56;15270317;19;20018;-52
2022/06/03 18:48:22;;;;;;;1.43;0.60;;;;;;;23.12;69.00;98233.34;15272259;19;20598;-56
2022/06/03 18:53:55;;;;;;;2.38;0.70;;;;;;;23.00;69.69;98236.97;15274119;19;20432;-56
2022/06/03 18:59:30;;;;;;;1.83;0.63;;;;;;;22.94;72.07;98243.47;15274663;19;20015;-51
2022/06/03 19:04:49;;;;;;;;;;;;;;;22.70;75.35;98243.59;15273793;19;20467;-56
2022/06/03 19:10:08;;;;;;;2.35;0.70;;;;;;;22.59;77.76;98237.03;15280928;19;20275;-56
2022/06/03 19:15:26;;;;;;;1.58;0.65;;;;;;;22.44;80.24;98234.84;15269746;19;20018;-57
2022/06/03 19:20:56;;;;;;;3.13;0.60;;;;;;;22.28;82.57;98230.91;15275615;19;20077;-53
2022/06/03 19:26:17;;;;;;;3.35;0.70;;;;;;;22.17;84.12;98235.34;15265635;19;20014;-57
2022/06/03 19:31:25;;;;;;;2.55;0.90;;;;;;;22.09;84.94;98222.00;15269750;19;20006;-53
2022/06/03 19:36:53;;;;;;;2.80;0.70;;;;;;;22.04;85.30;98227.41;15269994;19;20011;-55
2022/06/03 19:42:25;;;;;;;2.47;0.80;;;;;;;21.98;86.29;98220.13;15271681;19;20022;-52
2022/06/03 19:47:43;;;;;;;2.17;1.10;;;;;;;21.94;90.59;98235.38;15266869;19;20498;-52
2022/06/03 19:52:48;;;;;;;1.23;0.80;;;;;;;21.82;94.61;98244.44;15273623;19;20035;-53
2022/06/03 19:58:11;;;;;;;3.10;0.90;;;;;;;21.68;98.10;98248.53;15275198;19;20015;-55
2022/06/03 20:03:24;;;;;;;1.92;0.82;;;;;;;21.57;100.00;98257.53;15270289;19;20460;-57
2022/06/03 20:08:42;;;;;;;4.03;0.80;;;;;;;21.53;100.00;98279.94;15272835;19;20010;-54
2022/06/03 20:13:56;;;;;;;3.28;0.90;;;;;;;21.28;100.00;98343.16;15275262;19;20018;-52
2022/06/03 20:19:12;;;;;;;3.97;0.70;;;;;;;21.37;100.00;98346.38;15261867;19;20381;-52
2022/06/03 20:24:37;;;;;;;1.85;0.70;;;;;;;21.41;100.00;98342.09;15271368;19;20007;-55
2022/06/03 20:30:00;;;;;;;1.40;0.60;;;;;;;21.36;100.00;98350.19;15275890;19;20031;-55
2022/06/03 20:35:10;;;;;;;1.27;0.77;;;;;;;21.34;100.00;98350.44;15266820;19;20022;-57
2022/06/03 20:40:28;;;;;;;2.03;0.77;;;;;;;21.32;100.00;98343.53;15271922;19;20357;-52
2022/06/03 20:45:56;;;;;;;1.33;0.75;;;;;;;21.32;100.00;98336.13;15270547;19;20018;-53
2022/06/03 20:51:22;;;;;;;1.17;0.75;;;;;;;21.25;100.00;98349.91;15266285;19;20022;-57
2022/06/03 20:56:39;;;;;;;1.65;0.70;;;;;;;21.20;100.00;98354.41;15281451;19;20018;-55
2022/06/03 21:01:57;;;;;;;2.95;0.80;;;;;;;20.57;100.00;98351.00;15286138;19;20483;-56
2022/06/03 21:17:44;;;;;;;3.20;1.00;;;;;;;20.07;100.00;98362.84;15284464;19;20014;-55
2022/06/03 21:23:00;;;;;;;2.80;0.88;;;;;;;19.95;100.00;98358.13;15279399;19;21028;-56
2022/06/03 21:28:06;;;;;;;1.45;1.00;;;;;;;19.83;100.00;98370.81;15283745;19;20018;-53
2022/06/03 21:33:17;;;;;;;1.40;0.90;;;;;;;19.88;100.00;98354.59;15284091;19;20022;-53
2022/06/03 21:38:28;;;;;;;1.88;1.00;;;;;;;19.89;100.00;98358.16;15279277;19;20010;-53
2022/06/03 21:43:43;;;;;;;3.78;1.00;;;;;;;19.72;100.00;98383.31;15283402;19;20015;-53
2022/06/03 21:49:13;;;;;;;1.15;1.00;;;;;;;19.51;100.00;98385.34;15280451;19;20014;-53
2022/06/03 21:54:30;;;;;;;1.48;1.10;;;;;;;19.36;100.00;98380.16;15279134;19;20011;-52
2022/06/03 22:00:03;;;;;;;2.05;1.00;;;;;;;19.23;100.00;98386.56;15285143;19;20036;-54
2022/06/03 22:05:13;;;;;;;1.90;1.02;;;;;;;19.13;100.00;98391.66;15280629;19;20018;-53
2022/06/03 22:10:18;;;;;;;2.05;1.05;;;;;;;19.03;100.00;98388.56;15279089;19;20384;-52
2022/06/03 22:15:26;;;;;;;0.80;0.80;;;;;;;18.98;100.00;98397.41;15283408;19;20038;-55
2022/06/03 22:20:35;;;;;;;1.20;1.10;;;;;;;18.96;100.00;98394.03;15282453;19;20050;-52
2022/06/03 22:25:51;;;;;;;1.88;0.90;;;;;;;18.87;100.00;98400.78;15280728;19;20716;-56
2022/06/03 22:31:04;;;;;;;2.05;1.05;;;;;;;18.85;100.00;98411.06;15275069;19;20463;-55
2022/06/03 22:36:21;;;;;;;1.20;1.10;;;;;;;18.77;100.00;98402.03;15277877;19;20010;-52
2022/06/03 22:41:43;;;;;;;1.20;1.10;;;;;;;18.74;100.00;98412.56;15280193;19;20013;-52
2022/06/03 22:46:50;;;;;;;1.70;1.08;;;;;;;18.57;100.00;98415.78;15273898;19;20551;-49
2022/06/03 22:52:00;;;;;;;2.47;1.27;;;;;;;18.55;100.00;98412.41;15279798;19;20022;-53
2022/06/03 22:57:06;;;;;;;1.77;1.20;;;;;;;18.44;100.00;98411.16;15278861;19;20033;-53
2022/06/03 23:02:11;;;;;;;2.05;1.27;;;;;;;18.40;100.00;98406.34;15272395;19;20471;-54
2022/06/03 23:07:19;;;;;;;1.40;1.20;;;;;;;18.37;100.00;98412.22;15277443;19;20018;-52
2022/06/03 23:12:24;;;;;;;3.35;1.30;;;;;;;18.32;100.00;98405.53;15280610;19;20014;-56
2022/06/03 23:17:31;;;;;;;1.98;1.30;;;;;;;18.27;100.00;98409.94;15270275;19;20042;-52
2022/06/03 23:22:39;;;;;;;2.08;1.30;;;;;;;18.23;100.00;98411.41;15278619;19;20003;-51
2022/06/03 23:27:44;;;;;;;1.33;1.23;;;;;;;18.13;100.00;98399.03;15276342;19;20018;-58
2022/06/03 23:32:49;;;;;;;1.50;1.33;;;;;;;18.05;100.00;98388.34;15269259;19;20035;-50
2022/06/03 23:37:57;;;;;;;2.85;1.35;;;;;;;17.99;100.00;98386.47;15274102;19;20622;-58
2022/06/03 23:48:20;;;;;;;3.00;1.38;;;;;;;17.96;100.00;98401.31;15270166;19;20018;-51
2022/06/03 23:53:30;;;;;;;1.60;1.40;;;;;;;17.86;100.00;98401.75;15275826;19;20014;-53
2022/06/03 23:58:35;;;;;;;2.55;1.50;;;;;;;17.81;100.00;98404.25;15273987;19;20055;-56
